Aérodrome :
LOGIN :

S'inscrire | Disclaimer

   EN    FR    IT 

 










Légende :    VFR   VFR Marginal   IFR   IFR Intensif   IFR Très Intensif
Visi : 
Plafond : 
>= 8 km
>= 3000ft
5 à 8 km
1000 à 3000 ft
1500m à 5 km
500 à 1000 ft
800 à 1500m
200 à 500 ft
< 800m
< 200 ft
Symboles :   Orages  Brouillard  Fortes neiges  Fortes précipitations  Vent > 20 kt
SIGMETs :   Divers  Orages  Givrage  Turbulence  Onde Orograph.  Cendres Volcan.







- Altitude de l'aérodrome : 23 ft
- Code IATA : XFW


EDHI - Hamburg Finkenwerder

DERNIER METAR :
  • 231950Z AUTO 20012KT 170V240 9999 // FEW009/// OVC011/// 07/05 Q1015

METARs EXPIRÉS :
  • 231920Z AUTO 20014KT 9000 2800 // SCT010/// BKN022/// OVC057/// 06/05 Q1015
  • 231850Z 20014KT 9000 -RA FEW019 BKN034 06/05 Q1016
  • 231820Z 20012KT 9000 -RA FEW032 BKN046 06/05 Q1016
  • 231750Z 20010KT 9000 -RA SCT041 BKN052 07/05 Q1016
  • 231720Z 19011KT 160V220 9999 -RA SCT037 BKN056 07/04 Q1017

TAF TAF EDHI
Valide du 23 à 18h jusqu'au 23 à 21h UTC


231700Z 2318/2321 20011KT 9999 BKN025
PROB30
TEMPO 2318/2320 RA
BECMG 2319/2321 BKN012
TEMPO 2320/2321 21015G25KT
Pas de NOTAMs connus pour ce terrain.



MET'MAP, la Météo Aéronautique d'un coup d'oeil ! - Copyright ORBIFLY Décembre 2007 - Disclaimer

ORBIFLY MET'MAP TEAM :

Programmation & Développement : Alexandra Zaïnal
Conception & Développement : Baudouin d'Aumeries
Co-Programmation & Développement : Marc-Olivier Méhu
Soutien technique & logistique : Manuel Goepfert

Contact : metmap@orbifly.com




SOURCES & CREDITS :

   NOAA